Time;durP1;ratioP1;P1;durP2;ratioP2;P2;SDS_P1;SDS_P2;PMS_P1;PMS_P2;Temp;Humidity;BMP_temperature;BMP_pressure;BME280_temperature;BME280_humidity;BME280_pressure;Samples;Min_cycle;Max_cycle;Signal;HPM_P1;HPM_P2
2021/09/20 00:00:07;;;;;;;3.97;2.33;;;;;;;20.55;54.82;101681.94;5051745;28;20032;-63
2021/09/20 00:02:33;;;;;;;4.15;2.30;;;;;;;20.54;54.47;101678.47;5052188;28;20029;-64
2021/09/20 00:04:59;;;;;;;4.55;2.55;;;;;;;20.54;54.72;101682.94;5051365;28;20108;-64
2021/09/20 00:07:24;;;;;;;4.50;2.33;;;;;;;20.53;54.69;101682.06;5052211;28;20060;-64
2021/09/20 00:10:04;;;;;;;4.25;2.38;;;;;;;20.51;54.65;101684.00;5051859;28;20040;-64
2021/09/20 00:15:16;;;;;;;4.45;2.50;;;;;;;20.50;54.60;101686.78;5044454;28;20044;-64
2021/09/20 00:17:42;;;;;;;4.68;2.30;;;;;;;20.48;54.48;101685.06;5051868;28;20025;-63
2021/09/20 00:20:12;;;;;;;4.35;2.60;;;;;;;20.52;54.58;101687.50;5050805;28;20029;-64
2021/09/20 00:22:37;;;;;;;4.50;2.67;;;;;;;20.51;54.46;101683.16;5051798;28;20032;-63
2021/09/20 00:25:05;;;;;;;4.32;2.30;;;;;;;20.48;54.48;101685.06;5050677;28;20021;-63
2021/09/20 00:27:30;;;;;;;4.07;2.50;;;;;;;20.50;54.42;101689.41;5050411;28;20029;-63
2021/09/20 00:29:56;;;;;;;5.10;2.70;;;;;;;20.49;54.45;101683.28;5051324;28;20025;-64
2021/09/20 00:32:21;;;;;;;4.25;2.50;;;;;;;20.48;54.31;101684.25;5050869;28;20017;-64
2021/09/20 00:34:47;;;;;;;4.90;2.95;;;;;;;20.47;54.38;101675.47;5051730;28;20028;-64
2021/09/20 00:37:12;;;;;;;5.25;2.30;;;;;;;20.47;54.22;101680.75;5051487;28;20056;-64
2021/09/20 00:39:38;;;;;;;4.63;2.50;;;;;;;20.47;54.15;101683.41;5050826;28;20031;-63
2021/09/20 00:42:04;;;;;;;4.03;2.40;;;;;;;20.47;54.29;101685.19;5051245;28;20028;-64
2021/09/20 00:44:29;;;;;;;4.80;2.47;;;;;;;20.42;54.26;101679.44;5051734;28;20025;-63
2021/09/20 00:46:54;;;;;;;4.28;2.50;;;;;;;20.41;53.96;101675.06;5051064;28;20083;-63
2021/09/20 00:49:19;;;;;;;4.45;2.20;;;;;;;20.45;53.99;101693.25;5051476;28;20029;-63
2021/09/20 00:51:48;;;;;;;4.50;2.42;;;;;;;20.43;54.15;101684.59;5051562;28;20464;-63
2021/09/20 00:54:17;;;;;;;4.13;2.35;;;;;;;20.43;54.09;101678.47;5050595;28;20104;-64
2021/09/20 00:56:43;;;;;;;4.95;2.75;;;;;;;20.45;53.91;101687.97;5051699;28;20035;-64
2021/09/20 00:59:08;;;;;;;5.28;2.42;;;;;;;20.43;54.02;101687.25;5054898;28;20111;-64
2021/09/20 01:01:34;;;;;;;4.40;2.47;;;;;;;20.43;53.82;101684.59;5054705;28;20029;-64
2021/09/20 01:03:59;;;;;;;5.20;2.35;;;;;;;20.42;53.92;101690.00;5054825;28;20021;-64
2021/09/20 01:06:25;;;;;;;4.85;2.67;;;;;;;20.42;53.88;101682.91;5055223;28;20032;-65
2021/09/20 01:08:50;;;;;;;4.07;2.22;;;;;;;20.42;53.78;101685.56;5054149;28;20028;-64
2021/09/20 01:11:16;;;;;;;4.35;2.47;;;;;;;20.40;53.83;101684.00;5055039;28;20041;-63
2021/09/20 01:13:46;;;;;;;4.03;2.35;;;;;;;20.39;53.85;101690.25;5055179;28;20025;-64
2021/09/20 01:16:11;;;;;;;4.50;2.45;;;;;;;20.40;53.72;101687.47;5053932;28;20021;-64
2021/09/20 01:18:37;;;;;;;5.35;2.70;;;;;;;20.40;53.61;101681.34;5055018;28;20031;-63
2021/09/20 01:21:02;;;;;;;3.80;2.08;;;;;;;20.40;53.83;101678.72;5054615;28;20107;-63
2021/09/20 01:23:28;;;;;;;4.93;2.50;;;;;;;20.36;53.47;101683.41;5054059;28;20490;-64
2021/09/20 01:25:53;;;;;;;3.92;2.53;;;;;;;20.37;53.59;101687.72;5054526;28;20100;-63
2021/09/20 01:28:18;;;;;;;4.85;2.38;;;;;;;20.37;53.58;101690.38;5054183;28;20036;-64
2021/09/20 01:30:44;;;;;;;4.15;2.38;;;;;;;20.37;53.73;101694.84;5054772;28;20032;-65
2021/09/20 01:33:10;;;;;;;4.30;2.33;;;;;;;20.37;53.65;101692.19;5054409;28;20028;-64
2021/09/20 01:35:36;;;;;;;5.00;2.67;;;;;;;20.37;53.27;101697.47;5054060;28;20043;-64
2021/09/20 01:38:01;;;;;;;5.05;2.50;;;;;;;20.36;53.27;101693.13;5054373;28;20107;-64
2021/09/20 01:40:28;;;;;;;4.80;2.40;;;;;;;20.36;53.46;101698.44;5054482;28;20036;-64
2021/09/20 01:42:53;;;;;;;4.82;2.85;;;;;;;20.35;53.53;101707.34;5053630;28;20419;-64
2021/09/20 01:45:19;;;;;;;4.28;2.42;;;;;;;20.35;53.53;101699.41;5054747;28;20100;-64
2021/09/20 01:47:45;;;;;;;5.65;2.83;;;;;;;20.34;53.15;101693.25;5054450;28;20021;-63
2021/09/20 01:50:13;;;;;;;4.55;2.47;;;;;;;20.33;53.39;101696.88;5053274;28;20033;-64
2021/09/20 01:52:39;;;;;;;4.88;2.63;;;;;;;20.34;53.35;101695.06;5053068;28;20025;-64
2021/09/20 01:55:07;;;;;;;4.03;2.38;;;;;;;20.32;53.33;101694.34;5053840;28;20078;-64
2021/09/20 01:57:35;;;;;;;5.68;2.40;;;;;;;20.33;53.28;101691.59;5054013;28;20036;-64
2021/09/20 02:00:01;;;;;;;4.20;2.50;;;;;;;20.33;53.09;101698.66;5054335;28;20029;-64
2021/09/20 02:02:26;;;;;;;3.65;2.28;;;;;;;20.30;53.16;101695.31;5054017;28;20031;-65
2021/09/20 02:04:52;;;;;;;5.13;2.35;;;;;;;20.32;53.08;101702.28;5053232;28;20056;-64
2021/09/20 02:07:21;;;;;;;5.07;2.58;;;;;;;20.32;53.07;101697.00;5054076;28;20052;-65
2021/09/20 02:10:09;;;;;;;4.45;2.70;;;;;;;20.30;52.94;101703.25;5053110;28;20083;-64
2021/09/20 02:12:35;;;;;;;5.18;2.60;;;;;;;20.29;53.11;101706.84;5052147;28;20041;-64
2021/09/20 02:15:04;;;;;;;5.10;2.45;;;;;;;20.29;53.09;101709.50;5053666;28;20044;-64
2021/09/20 02:17:31;;;;;;;4.45;2.75;;;;;;;20.29;53.12;101700.72;5053942;28;20029;-63
2021/09/20 02:19:58;;;;;;;5.35;2.60;;;;;;;20.29;52.80;101708.66;5053226;28;20025;-65
2021/09/20 02:22:23;;;;;;;5.15;2.70;;;;;;;20.29;53.10;101709.50;5053820;28;20021;-63
2021/09/20 02:24:49;;;;;;;4.70;2.38;;;;;;;20.27;53.06;101706.13;5053059;28;20570;-64
2021/09/20 02:27:14;;;;;;;4.82;2.60;;;;;;;20.27;52.96;101706.13;5053827;28;20384;-66
2021/09/20 02:29:39;;;;;;;4.68;2.50;;;;;;;20.27;52.87;101694.69;5053672;28;20071;-63
2021/09/20 02:32:06;;;;;;;4.90;2.63;;;;;;;20.27;52.80;101708.78;5052600;28;20165;-63
2021/09/20 02:34:35;;;;;;;4.32;2.47;;;;;;;20.26;53.09;101707.06;5053347;28;20017;-64
2021/09/20 02:37:01;;;;;;;6.13;2.70;;;;;;;20.26;53.02;101709.72;5053127;28;20566;-63
2021/09/20 02:39:26;;;;;;;4.68;2.90;;;;;;;20.27;52.89;101715.88;5052994;28;20032;-64
2021/09/20 02:41:51;;;;;;;4.32;2.58;;;;;;;20.25;52.64;101713.34;5053267;28;20361;-64
2021/09/20 02:44:17;;;;;;;5.32;2.72;;;;;;;20.26;52.98;101709.72;5053453;28;20376;-64
2021/09/20 02:46:42;;;;;;;4.60;2.85;;;;;;;20.24;52.94;101706.34;5052757;28;20060;-64
2021/09/20 02:49:08;;;;;;;5.18;2.90;;;;;;;20.25;52.78;101713.34;5052724;28;20075;-64
2021/09/20 02:51:33;;;;;;;4.30;2.60;;;;;;;20.24;52.71;101716.94;5053430;28;20380;-64
2021/09/20 02:53:58;;;;;;;3.95;2.33;;;;;;;20.25;52.72;101709.84;5052151;28;20084;-63
2021/09/20 02:56:24;;;;;;;4.33;2.77;;;;;;;20.23;52.66;101704.66;5053422;28;20035;-63
2021/09/20 02:58:49;;;;;;;4.45;2.53;;;;;;;20.24;52.52;101713.47;5052882;28;20630;-63
2021/09/20 03:01:15;;;;;;;5.13;2.75;;;;;;;20.23;52.68;101715.25;5052196;28;20033;-64
2021/09/20 03:03:40;;;;;;;6.32;2.97;;;;;;;20.23;52.71;101714.41;5052888;28;20082;-63
2021/09/20 03:06:06;;;;;;;4.32;2.72;;;;;;;20.22;52.59;101715.38;5052656;28;20457;-64
2021/09/20 03:08:31;;;;;;;4.68;2.70;;;;;;;20.21;52.62;101716.34;5052291;28;20029;-63
2021/09/20 03:10:57;;;;;;;4.53;2.88;;;;;;;20.21;52.48;101722.47;5052745;28;20017;-64
2021/09/20 03:13:22;;;;;;;4.80;2.55;;;;;;;20.21;52.59;101724.28;5053001;28;20029;-63
2021/09/20 03:15:48;;;;;;;5.03;2.88;;;;;;;20.20;52.56;101725.22;5051667;28;20117;-64
2021/09/20 03:18:13;;;;;;;5.00;2.95;;;;;;;20.21;52.42;101729.56;5052557;28;20075;-63
2021/09/20 03:20:38;;;;;;;5.22;2.80;;;;;;;20.18;52.41;101728.00;5052399;28;20033;-64
2021/09/20 03:23:04;;;;;;;4.93;2.70;;;;;;;20.19;52.16;101740.28;5051953;28;20370;-64
2021/09/20 03:25:29;;;;;;;4.47;2.50;;;;;;;20.18;52.29;101741.22;5052865;28;20060;-64
2021/09/20 03:27:54;;;;;;;4.70;2.80;;;;;;;20.19;52.34;101750.03;5051666;28;20452;-64
2021/09/20 03:30:20;;;;;;;4.85;3.03;;;;;;;20.19;52.02;101747.38;5052616;28;20460;-64
2021/09/20 03:32:46;;;;;;;4.68;2.88;;;;;;;20.18;52.17;101750.97;5052235;28;20460;-64
2021/09/20 03:35:14;;;;;;;4.70;2.80;;;;;;;20.17;52.23;101749.28;5051440;28;20052;-64
2021/09/20 03:37:40;;;;;;;4.47;2.72;;;;;;;20.12;52.30;101749.63;5052656;28;20032;-64
2021/09/20 03:40:06;;;;;;;4.30;2.70;;;;;;;20.17;52.15;101749.28;5052289;28;20036;-64
2021/09/20 03:42:42;;;;;;;4.70;2.67;;;;;;;20.15;52.12;101743.28;5053599;28;20028;-64
2021/09/20 03:45:09;;;;;;;4.20;2.50;;;;;;;20.16;52.13;101743.16;5057165;28;20025;-63
2021/09/20 03:47:34;;;;;;;5.18;2.75;;;;;;;20.15;52.21;101745.91;5056957;28;20115;-64
2021/09/20 03:49:59;;;;;;;4.63;2.60;;;;;;;20.13;51.88;101740.75;5055962;28;20461;-63
2021/09/20 03:52:25;;;;;;;5.38;2.80;;;;;;;20.14;52.25;101746.88;5057844;28;20103;-64
2021/09/20 03:54:50;;;;;;;4.85;2.90;;;;;;;20.14;52.25;101744.22;5056712;28;20040;-63
2021/09/20 03:57:16;;;;;;;4.40;2.67;;;;;;;20.12;52.09;101746.97;5056262;28;20465;-63
2021/09/20 03:59:44;;;;;;;5.28;2.92;;;;;;;20.10;52.18;101749.75;5057084;28;20575;-64
2021/09/20 04:02:09;;;;;;;4.40;2.40;;;;;;;20.13;52.15;101753.13;5052755;28;20025;-63
2021/09/20 04:04:35;;;;;;;4.43;2.83;;;;;;;20.11;52.13;101740.03;5052474;28;20085;-64
2021/09/20 04:07:04;;;;;;;4.35;2.78;;;;;;;20.10;52.11;101752.38;5052574;28;20079;-64
2021/09/20 04:09:29;;;;;;;4.97;2.95;;;;;;;20.11;52.01;101753.25;5052347;28;20390;-64
2021/09/20 04:11:54;;;;;;;4.60;2.80;;;;;;;20.10;52.07;101759.50;5051101;28;20025;-64
2021/09/20 04:14:19;;;;;;;5.13;3.05;;;;;;;20.10;52.20;101752.38;5052071;28;20025;-63
2021/09/20 04:16:45;;;;;;;4.20;2.70;;;;;;;20.10;52.02;101759.50;5051887;28;20477;-63
2021/09/20 04:19:10;;;;;;;4.57;2.45;;;;;;;20.08;51.89;101756.97;5051095;28;20032;-63
2021/09/20 04:21:35;;;;;;;4.38;2.80;;;;;;;20.07;51.96;101760.56;5052095;28;20029;-63
2021/09/20 04:24:10;;;;;;;4.65;3.13;;;;;;;20.08;51.76;101761.41;5051825;28;20025;-64
2021/09/20 04:26:36;;;;;;;4.88;3.03;;;;;;;20.07;51.88;101760.56;5051966;28;20052;-63
2021/09/20 04:29:03;;;;;;;4.68;3.10;;;;;;;20.05;51.81;101766.94;5051606;28;20063;-63
2021/09/20 04:31:29;;;;;;;4.47;2.85;;;;;;;20.06;51.83;101773.91;5051191;28;20048;-64
2021/09/20 04:33:57;;;;;;;4.75;3.00;;;;;;;20.06;51.61;101776.53;5055396;28;20021;-63
2021/09/20 04:36:22;;;;;;;4.28;2.70;;;;;;;20.05;51.60;101783.66;5055935;28;20055;-64
2021/09/20 04:38:47;;;;;;;5.35;2.45;;;;;;;20.04;51.67;101787.25;5054844;28;20029;-63
2021/09/20 04:41:19;;;;;;;5.22;2.92;;;;;;;20.04;51.43;101792.53;5055817;28;20059;-63
2021/09/20 04:43:44;;;;;;;5.05;2.53;;;;;;;20.04;51.60;101789.06;5055829;28;20021;-64
2021/09/20 04:46:10;;;;;;;5.22;2.95;;;;;;;20.03;51.76;101795.31;5054576;28;20036;-64
2021/09/20 04:48:35;;;;;;;5.30;3.00;;;;;;;20.03;51.67;101796.16;5056177;28;20021;-64
2021/09/20 04:51:06;;;;;;;4.70;2.60;;;;;;;19.99;51.51;101801.78;5055640;28;20527;-63
2021/09/20 04:53:31;;;;;;;4.63;2.83;;;;;;;20.02;51.41;101810.34;5055488;28;20361;-64
2021/09/20 04:55:57;;;;;;;5.72;2.83;;;;;;;20.01;51.56;101816.59;5055976;28;20116;-64
2021/09/20 04:58:22;;;;;;;4.22;2.55;;;;;;;20.01;51.63;101811.31;5055690;28;20469;-64
2021/09/20 05:00:47;;;;;;;5.10;2.92;;;;;;;20.00;51.31;101808.78;5054928;28;20028;-64
2021/09/20 05:03:13;;;;;;;4.47;2.67;;;;;;;20.00;51.48;101820.19;5056139;28;20025;-63
2021/09/20 05:05:38;;;;;;;6.22;2.83;;;;;;;19.94;51.25;101808.25;5056368;28;20368;-65
2021/09/20 05:08:04;;;;;;;6.47;3.25;;;;;;;20.00;51.53;101820.19;5055125;28;20468;-65
2021/09/20 05:10:30;;;;;;;4.72;2.75;;;;;;;20.00;51.49;101825.50;5056158;28;20413;-64
2021/09/20 05:12:55;;;;;;;5.10;3.05;;;;;;;19.98;51.53;101813.31;5056376;28;20067;-65
2021/09/20 05:15:20;;;;;;;4.22;2.78;;;;;;;19.99;51.32;101815.03;5055724;28;20028;-65
2021/09/20 05:17:46;;;;;;;5.55;2.97;;;;;;;19.99;51.10;101815.03;5056459;28;20506;-64
2021/09/20 05:20:12;;;;;;;5.38;2.75;;;;;;;19.98;51.31;101818.63;5056234;28;20041;-65
2021/09/20 05:22:41;;;;;;;5.05;2.75;;;;;;;19.94;51.26;101815.34;5055506;28;20029;-64
2021/09/20 05:25:10;;;;;;;5.18;2.90;;;;;;;19.95;51.25;101814.41;5055747;28;20071;-63
2021/09/20 05:27:41;;;;;;;4.90;3.10;;;;;;;19.97;50.99;101823.06;5055172;28;20104;-64
2021/09/20 05:30:09;;;;;;;5.03;2.85;;;;;;;19.97;51.34;101822.25;5055840;28;20021;-64
2021/09/20 05:32:37;;;;;;;4.68;2.85;;;;;;;19.96;51.13;101831.97;5055843;28;20025;-67
2021/09/20 05:35:03;;;;;;;4.25;2.75;;;;;;;19.93;51.00;101826.88;5054426;28;20028;-64
2021/09/20 05:37:29;;;;;;;4.65;2.90;;;;;;;19.95;51.13;101830.28;5055807;28;20025;-63
2021/09/20 05:40:08;;;;;;;6.13;2.90;;;;;;;19.95;51.40;101825.00;5055156;28;20082;-63
2021/09/20 05:42:37;;;;;;;4.60;2.55;;;;;;;19.95;51.06;101825.00;5054156;28;20064;-63
2021/09/20 05:45:04;;;;;;;5.43;2.75;;;;;;;19.94;51.12;101826.78;5054617;28;20021;-64
2021/09/20 05:47:29;;;;;;;5.10;3.13;;;;;;;19.93;51.15;101822.47;5054530;28;20032;-60
2021/09/20 05:49:54;;;;;;;4.65;2.90;;;;;;;19.94;51.12;101836.53;5053634;28;20044;-60
2021/09/20 05:52:22;;;;;;;4.40;2.83;;;;;;;19.92;51.04;101828.69;5055198;28;20431;-61
2021/09/20 05:54:53;;;;;;;5.95;3.10;;;;;;;19.88;51.15;101829.88;5055049;28;20063;-62
2021/09/20 05:57:18;;;;;;;5.32;2.53;;;;;;;19.86;50.99;101839.72;5053874;28;20035;-62
2021/09/20 05:59:47;;;;;;;4.20;2.65;;;;;;;19.84;51.16;101838.16;5054274;28;20104;-63
2021/09/20 06:02:15;;;;;;;5.13;2.80;;;;;;;19.86;51.07;101838.91;5054250;28;20048;-62
2021/09/20 06:04:40;;;;;;;4.55;2.72;;;;;;;19.87;51.24;101837.94;5053732;28;20151;-63
2021/09/20 06:07:06;;;;;;;4.45;2.63;;;;;;;19.89;51.19;101847.44;5054069;28;20460;-62
2021/09/20 06:09:35;;;;;;;4.93;2.80;;;;;;;19.90;51.25;101846.50;5054411;28;20029;-63
2021/09/20 06:12:00;;;;;;;6.05;2.60;;;;;;;19.89;51.54;101838.66;5053021;28;20033;-65
2021/09/20 06:14:26;;;;;;;5.88;2.80;;;;;;;19.89;51.78;101836.84;5054476;28;20071;-63
2021/09/20 06:17:00;;;;;;;5.68;3.05;;;;;;;19.90;51.51;101851.78;5052965;28;20116;-64
2021/09/20 06:19:26;;;;;;;4.68;2.97;;;;;;;19.90;51.60;101842.97;5053998;28;20029;-63
2021/09/20 06:21:54;;;;;;;6.13;2.80;;;;;;;19.90;51.73;101849.13;5054018;28;20021;-64
2021/09/20 06:24:19;;;;;;;6.35;2.90;;;;;;;19.92;51.78;101846.38;5053143;28;20028;-64
2021/09/20 06:26:45;;;;;;;5.53;2.60;;;;;;;19.94;52.17;101853.22;5053682;28;20045;-62
2021/09/20 06:29:10;;;;;;;6.18;2.72;;;;;;;19.96;52.39;101855.75;5053285;28;20051;-62
2021/09/20 06:31:37;;;;;;;4.20;2.50;;;;;;;19.96;52.15;101847.00;5052916;28;20029;-63
2021/09/20 06:34:05;;;;;;;4.25;2.50;;;;;;;19.97;52.16;101854.81;5053670;28;20074;-63
2021/09/20 06:36:31;;;;;;;4.43;2.53;;;;;;;19.97;51.87;101852.19;5053764;28;20029;-63
2021/09/20 06:38:59;;;;;;;4.35;2.63;;;;;;;20.00;52.19;101856.41;5052581;28;20032;-63
2021/09/20 06:41:25;;;;;;;4.55;2.50;;;;;;;20.01;52.06;101860.72;5053275;28;20028;-64
2021/09/20 06:43:50;;;;;;;4.30;2.50;;;;;;;20.01;52.32;101864.25;5053345;28;20017;-62
2021/09/20 06:46:19;;;;;;;5.13;2.70;;;;;;;20.03;52.32;101870.25;5052641;28;20036;-61
2021/09/20 06:48:44;;;;;;;4.60;2.63;;;;;;;20.04;52.23;101881.66;5053267;28;20040;-64
2021/09/20 06:51:09;;;;;;;6.90;2.70;;;;;;;20.05;52.57;101881.56;5052818;28;20132;-62
2021/09/20 06:53:35;;;;;;;4.50;2.50;;;;;;;20.07;52.40;101878.81;5052567;28;20047;-62
2021/09/20 06:56:01;;;;;;;5.85;3.00;;;;;;;20.08;52.76;101880.50;5052362;28;20044;-63
2021/09/20 06:58:26;;;;;;;4.30;2.70;;;;;;;20.04;53.27;101871.09;5053180;28;20032;-62
2021/09/20 07:00:52;;;;;;;5.03;2.60;;;;;;;20.09;53.23;101874.22;5051988;28;20033;-62
2021/09/20 07:03:17;;;;;;;6.88;2.85;;;;;;;20.10;53.38;101875.94;5052933;28;20075;-64
2021/09/20 07:05:43;;;;;;;4.37;2.80;;;;;;;20.10;53.39;101870.63;5053176;28;20499;-64
2021/09/20 07:08:11;;;;;;;6.55;2.88;;;;;;;20.11;53.56;101878.47;5051710;28;20325;-63
2021/09/20 07:10:36;;;;;;;4.90;2.70;;;;;;;20.15;53.47;101878.25;5052909;28;20025;-64
2021/09/20 07:13:02;;;;;;;4.65;2.97;;;;;;;20.16;53.52;101882.59;5051820;28;20128;-63
2021/09/20 07:15:28;;;;;;;4.60;2.30;;;;;;;20.16;53.61;101885.25;5052722;28;20035;-62
2021/09/20 07:17:53;;;;;;;4.55;2.65;;;;;;;20.16;53.74;101874.66;5052205;28;20017;-62
2021/09/20 07:20:18;;;;;;;4.47;2.60;;;;;;;20.18;53.15;101878.84;5051551;28;20032;-62
2021/09/20 07:22:50;;;;;;;5.75;2.67;;;;;;;20.20;53.57;101876.09;5052618;28;20029;-63
2021/09/20 07:25:17;;;;;;;4.70;2.60;;;;;;;20.20;53.63;101884.91;5052786;28;20036;-63
2021/09/20 07:27:43;;;;;;;5.40;2.75;;;;;;;20.20;53.56;101881.38;5051905;28;20025;-63
2021/09/20 07:30:14;;;;;;;5.32;2.70;;;;;;;20.21;53.57;101886.56;5052207;28;20021;-61
2021/09/20 07:32:39;;;;;;;5.60;2.30;;;;;;;20.22;53.51;101885.63;5052831;28;20075;-62
2021/09/20 07:35:05;;;;;;;4.95;2.70;;;;;;;20.23;53.48;101892.59;5051233;28;20033;-66
2021/09/20 07:37:30;;;;;;;4.75;2.70;;;;;;;20.25;53.88;101897.75;5052246;28;20035;-64
2021/09/20 07:39:58;;;;;;;5.53;2.92;;;;;;;20.23;53.56;101897.88;5051950;28;20115;-63
2021/09/20 07:42:24;;;;;;;6.32;2.60;;;;;;;20.25;53.29;101901.28;5052556;28;20043;-65
2021/09/20 07:44:49;;;;;;;5.57;2.90;;;;;;;20.28;53.03;101903.69;5053358;28;20473;-63
2021/09/20 07:47:14;;;;;;;5.03;2.38;;;;;;;20.29;53.09;101908.03;5052748;28;20491;-66
2021/09/20 07:49:40;;;;;;;5.43;2.45;;;;;;;20.28;53.36;101903.69;5051527;28;20098;-63
2021/09/20 07:52:05;;;;;;;4.80;2.45;;;;;;;20.30;53.22;101908.88;5052674;28;20040;-65
2021/09/20 07:54:30;;;;;;;5.03;2.80;;;;;;;20.30;53.23;101907.06;5053179;28;20025;-64
2021/09/20 07:56:58;;;;;;;5.70;3.03;;;;;;;20.30;53.20;101915.00;5053944;28;20380;-65
2021/09/20 07:59:24;;;;;;;6.40;2.38;;;;;;;20.29;53.19;101917.78;5053048;28;20115;-66
2021/09/20 08:01:49;;;;;;;5.20;2.88;;;;;;;20.27;52.97;101914.41;5052997;28;20111;-65
2021/09/20 08:04:17;;;;;;;4.55;2.67;;;;;;;20.28;53.02;101916.06;5052869;28;20036;-64
2021/09/20 08:06:43;;;;;;;4.53;2.88;;;;;;;20.26;53.00;101926.78;5053068;28;20040;-66
2021/09/20 08:09:08;;;;;;;5.38;2.70;;;;;;;20.28;52.95;101926.66;5054136;28;20021;-65
2021/09/20 08:11:36;;;;;;;4.50;2.63;;;;;;;20.27;53.02;101925.00;5052963;28;20025;-66
2021/09/20 08:14:01;;;;;;;5.05;2.80;;;;;;;20.24;52.73;101928.69;5052260;28;20472;-61
2021/09/20 08:16:27;;;;;;;5.60;2.78;;;;;;;20.27;52.70;101931.13;5051895;28;20037;-64
2021/09/20 08:18:52;;;;;;;5.40;3.05;;;;;;;20.27;52.62;101933.75;5052028;28;20029;-63
2021/09/20 08:21:17;;;;;;;4.70;2.60;;;;;;;20.29;52.53;101941.59;5052100;28;20025;-64
2021/09/20 08:23:43;;;;;;;4.90;2.75;;;;;;;20.26;52.71;101929.41;5051264;28;20025;-62
2021/09/20 08:26:08;;;;;;;4.15;2.58;;;;;;;20.30;52.54;101938.00;5051942;28;20515;-62
2021/09/20 08:28:34;;;;;;;5.13;2.95;;;;;;;20.32;52.47;101938.72;5051878;28;20044;-62
2021/09/20 08:31:02;;;;;;;5.60;2.50;;;;;;;20.31;52.59;101931.72;5051074;28;20527;-63
2021/09/20 08:33:29;;;;;;;5.35;3.00;;;;;;;20.34;52.58;101936.81;5052319;28;20029;-64
2021/09/20 08:35:54;;;;;;;5.82;2.72;;;;;;;20.33;52.79;101939.56;5052828;28;20025;-64
2021/09/20 08:38:20;;;;;;;5.45;2.70;;;;;;;20.36;52.71;101939.34;5051992;28;20075;-64
2021/09/20 08:40:46;;;;;;;4.82;2.80;;;;;;;20.37;52.72;101941.03;5051533;28;20107;-64
2021/09/20 08:43:11;;;;;;;4.63;2.60;;;;;;;20.36;52.42;101944.63;5051216;28;20029;-65
2021/09/20 08:45:37;;;;;;;5.03;2.80;;;;;;;20.35;52.58;101946.44;5050703;28;20037;-63
2021/09/20 08:48:03;;;;;;;5.50;2.85;;;;;;;20.37;52.41;101954.28;5051685;28;20021;-65
2021/09/20 08:50:32;;;;;;;4.22;2.50;;;;;;;20.38;52.38;101959.47;5051620;28;20506;-66
2021/09/20 08:52:58;;;;;;;4.75;2.70;;;;;;;20.39;52.24;101957.66;5050799;28;20027;-64
2021/09/20 08:55:24;;;;;;;5.15;3.00;;;;;;;20.39;52.42;101962.94;5051891;28;20448;-64
2021/09/20 08:57:52;;;;;;;4.90;2.85;;;;;;;20.39;52.49;101970.88;5051649;28;20040;-65
2021/09/20 09:00:17;;;;;;;6.18;2.80;;;;;;;20.38;52.53;101966.56;5051507;28;20063;-65
2021/09/20 09:02:43;;;;;;;6.80;3.20;;;;;;;20.40;52.69;101968.13;5051911;28;20353;-64
2021/09/20 09:05:28;;;;;;;5.95;2.45;;;;;;;20.41;52.48;101969.81;5051687;28;20104;-64
2021/09/20 09:07:55;;;;;;;5.63;2.65;;;;;;;20.41;52.55;101964.53;5053138;28;20049;-66
2021/09/20 09:10:26;;;;;;;5.07;2.75;;;;;;;20.42;52.60;101974.16;5051579;28;20465;-64
2021/09/20 09:12:52;;;;;;;5.00;2.95;;;;;;;20.43;52.63;101980.31;5051380;28;20025;-62
2021/09/20 09:15:23;;;;;;;4.82;3.15;;;;;;;20.43;52.56;101982.94;5051869;28;20062;-64
2021/09/20 09:17:55;;;;;;;4.45;2.80;;;;;;;20.44;52.43;101979.31;5052122;28;20021;-65
2021/09/20 09:20:30;;;;;;;4.50;2.58;;;;;;;20.44;52.49;101985.50;5056309;28;20432;-65
2021/09/20 09:22:58;;;;;;;6.15;2.60;;;;;;;20.44;52.53;101987.28;5055489;28;20811;-62
2021/09/20 09:25:40;;;;;;;5.13;2.97;;;;;;;20.45;52.48;101986.31;5055166;28;20036;-64
2021/09/20 09:28:12;;;;;;;4.82;2.55;;;;;;;20.45;52.46;101983.69;5054575;28;20033;-63
2021/09/20 09:30:43;;;;;;;5.95;3.13;;;;;;;20.44;52.28;101979.31;5055380;28;20052;-67
2021/09/20 09:33:13;;;;;;;9.35;2.92;;;;;;;20.40;52.39;101984.00;5054901;28;20025;-62
2021/09/20 09:35:43;;;;;;;5.70;2.80;;;;;;;20.44;52.45;101989.91;5054461;28;20468;-64
2021/09/20 09:38:09;;;;;;;5.78;3.00;;;;;;;20.47;52.49;101987.91;5055373;28;20017;-65
2021/09/20 09:40:57;;;;;;;4.63;2.90;;;;;;;20.48;52.50;101986.94;5054734;28;20041;-66
2021/09/20 09:43:23;;;;;;;4.28;2.63;;;;;;;20.48;52.75;101986.09;5054932;28;20025;-63
2021/09/20 09:45:51;;;;;;;4.65;2.67;;;;;;;20.49;52.74;101990.44;5054382;28;20040;-64
2021/09/20 09:48:22;;;;;;;5.38;3.15;;;;;;;20.49;52.53;101987.81;5054715;28;20032;-63
2021/09/20 09:50:50;;;;;;;6.03;3.00;;;;;;;20.48;52.66;101989.59;5054435;28;20052;-65
2021/09/20 09:53:34;;;;;;;4.38;2.60;;;;;;;20.50;52.39;101993.94;5054458;28;20017;-67
2021/09/20 09:56:15;;;;;;;5.07;2.97;;;;;;;20.50;52.76;101992.13;5053428;28;20091;-66
2021/09/20 09:58:58;;;;;;;4.70;3.00;;;;;;;20.48;52.58;101994.88;5055016;28;20088;-66
2021/09/20 10:01:32;;;;;;;6.43;3.22;;;;;;;20.47;52.53;101995.00;5054756;28;20546;-65
2021/09/20 10:04:13;;;;;;;4.60;2.80;;;;;;;20.50;52.54;101997.41;5055235;28;20131;-68
2021/09/20 10:06:43;;;;;;;4.18;2.75;;;;;;;20.49;52.36;102003.69;5057025;28;20029;-65
2021/09/20 10:09:14;;;;;;;5.75;3.55;;;;;;;20.49;52.39;101995.75;5057654;28;20059;-66
2021/09/20 10:11:42;;;;;;;6.03;3.15;;;;;;;20.50;52.39;102008.00;5055825;28;20487;-61
2021/09/20 10:14:12;;;;;;;5.85;3.33;;;;;;;20.49;52.55;102003.69;5053583;28;20039;-64
2021/09/20 10:16:38;;;;;;;5.68;3.40;;;;;;;20.47;52.31;101993.22;5053173;28;20139;-61
2021/09/20 10:19:04;;;;;;;4.68;2.70;;;;;;;20.46;52.22;101995.97;5053636;28;20052;-66
2021/09/20 10:21:30;;;;;;;5.55;2.88;;;;;;;20.44;52.05;101989.91;5053999;28;20511;-62
2021/09/20 10:23:56;;;;;;;6.50;3.05;;;;;;;20.47;52.14;101995.00;5052869;28;20029;-60
2021/09/20 10:26:23;;;;;;;4.78;3.15;;;;;;;20.49;51.90;101982.50;5053949;28;20028;-60
2021/09/20 10:29:02;;;;;;;5.22;2.90;;;;;;;20.49;51.75;101977.22;5053399;28;20025;-61
2021/09/20 10:31:29;;;;;;;5.30;2.78;;;;;;;20.54;51.62;101977.72;5052270;28;20052;-62
2021/09/20 10:34:20;;;;;;;5.47;2.70;;;;;;;20.58;51.95;101987.09;5053270;28;20091;-60
2021/09/20 10:36:51;;;;;;;8.07;2.70;;;;;;;20.60;51.68;101984.34;5053443;28;20380;-62
2021/09/20 10:39:18;;;;;;;5.22;2.65;;;;;;;20.60;51.49;101989.63;5053242;28;20036;-60
2021/09/20 10:41:43;;;;;;;7.68;3.00;;;;;;;20.61;51.51;101991.34;5053294;28;20068;-60
2021/09/20 10:44:11;;;;;;;5.65;2.78;;;;;;;20.60;51.73;101987.84;5051026;28;20044;-60
2021/09/20 10:46:41;;;;;;;4.78;2.65;;;;;;;20.60;51.91;101984.34;5053305;28;20518;-60
2021/09/20 10:49:21;;;;;;;5.13;2.70;;;;;;;20.60;51.93;101992.28;5052976;28;20108;-61
2021/09/20 10:52:05;;;;;;;4.40;2.63;;;;;;;20.62;51.84;101990.38;5054548;28;20507;-61
2021/09/20 10:54:33;;;;;;;5.47;2.63;;;;;;;20.62;51.87;101987.75;5055429;28;20471;-63
2021/09/20 10:57:18;;;;;;;5.68;2.65;;;;;;;20.60;51.85;101985.22;5054800;28;20028;-62
2021/09/20 10:59:44;;;;;;;5.72;2.90;;;;;;;20.61;52.00;101994.81;5053150;28;20405;-61
2021/09/20 11:02:32;;;;;;;4.13;2.70;;;;;;;20.61;51.60;101992.16;5054827;28;20055;-61
2021/09/20 11:05:06;;;;;;;6.10;2.85;;;;;;;20.61;51.70;101992.16;5056048;28;20061;-62
2021/09/20 11:07:42;;;;;;;;;;;;;;;20.61;51.80;101997.47;5054636;28;20025;-62
2021/09/20 11:10:30;;;;;;;8.05;3.13;;;;;;;20.62;51.70;101991.22;5055140;28;19940;-63
2021/09/20 11:13:04;;;;;;;4.82;2.92;;;;;;;20.60;51.58;101987.84;5052241;28;20040;-62
2021/09/20 11:15:41;;;;;;;6.28;2.80;;;;;;;20.61;51.78;102001.94;5052942;28;20137;-59
2021/09/20 11:18:07;;;;;;;5.60;2.83;;;;;;;20.60;51.77;102001.09;5052676;28;20103;-60
2021/09/20 11:20:40;;;;;;;5.55;3.40;;;;;;;20.58;50.30;101995.03;5051926;28;20088;-61
2021/09/20 11:23:39;;;;;;;5.33;3.43;;;;;;;20.52;48.66;101998.16;5052531;28;20108;-60
2021/09/20 11:26:18;;;;;;;6.25;3.75;;;;;;;20.48;48.22;101991.41;5051686;28;20341;-60
2021/09/20 11:28:52;;;;;;;7.45;4.30;;;;;;;20.44;46.95;102001.38;5052738;28;20033;-61